createdAt,value
2018-12-30T00:00:22.391Z,4.87
2018-12-30T00:02:52.661Z,4.47
2018-12-30T00:05:23.205Z,4.83
2018-12-30T00:07:53.788Z,4.13
2018-12-30T00:10:23.873Z,4.77
2018-12-30T00:12:53.980Z,4.17
2018-12-30T00:15:27.139Z,5.10
2018-12-30T00:17:57.353Z,4.10
2018-12-30T00:20:31.702Z,4.57
2018-12-30T00:23:02.845Z,4.40
2018-12-30T00:25:33.154Z,4.50
2018-12-30T00:28:03.271Z,4.23
2018-12-30T00:30:33.772Z,4.33
2018-12-30T00:33:04.321Z,4.10
2018-12-30T00:35:34.483Z,4.30
2018-12-30T00:38:08.386Z,4.60
2018-12-30T00:40:38.820Z,4.70
2018-12-30T00:43:08.961Z,4.43
2018-12-30T00:45:39.338Z,4.20
2018-12-30T00:48:09.635Z,4.30
2018-12-30T00:50:40.462Z,4.53
2018-12-30T00:53:10.607Z,4.50
2018-12-30T00:55:40.894Z,4.40
2018-12-30T00:58:12.278Z,5.07
2018-12-30T01:00:42.517Z,5.17
2018-12-30T01:03:12.765Z,4.73
2018-12-30T01:05:44.577Z,5.03
2018-12-30T01:08:14.804Z,4.67
2018-12-30T01:10:44.964Z,5.40
2018-12-30T01:13:15.116Z,5.90
2018-12-30T01:15:45.323Z,5.37
2018-12-30T01:18:15.505Z,5.40
2018-12-30T01:20:46.251Z,5.90
2018-12-30T01:23:18.040Z,5.20
2018-12-30T01:25:48.458Z,6.30
2018-12-30T01:28:18.591Z,4.97
2018-12-30T01:30:48.721Z,5.03
2018-12-30T01:33:18.831Z,5.33
2018-12-30T01:35:48.993Z,5.60
2018-12-30T01:38:19.100Z,6.03
2018-12-30T01:40:49.333Z,5.47
2018-12-30T01:43:19.534Z,5.60
2018-12-30T01:45:49.692Z,5.73
2018-12-30T01:48:19.809Z,5.50
2018-12-30T01:50:50.368Z,5.47
2018-12-30T01:53:20.748Z,5.57
2018-12-30T01:55:52.579Z,5.77
2018-12-30T01:58:22.714Z,4.97
2018-12-30T02:00:52.891Z,5.57
2018-12-30T02:03:23.338Z,5.47
2018-12-30T02:05:53.517Z,5.13
2018-12-30T02:08:24.332Z,5.43
2018-12-30T02:10:54.531Z,6.10
2018-12-30T02:13:24.704Z,5.60
2018-12-30T02:15:54.893Z,5.63
2018-12-30T02:18:27.837Z,5.57
2018-12-30T02:20:58.331Z,4.93
2018-12-30T02:23:28.521Z,4.90
2018-12-30T02:25:58.861Z,4.87
2018-12-30T02:28:32.654Z,4.90
2018-12-30T02:31:03.070Z,4.70
2018-12-30T02:33:33.187Z,4.83
2018-12-30T02:36:03.605Z,4.50
2018-12-30T02:38:33.711Z,4.17
2018-12-30T02:41:07.532Z,4.80
2018-12-30T02:43:37.600Z,5.60
2018-12-30T02:46:07.748Z,4.90
2018-12-30T02:48:37.853Z,5.20
2018-12-30T02:51:08.051Z,4.57
2018-12-30T02:53:38.172Z,4.70
2018-12-30T02:56:08.330Z,4.37
2018-12-30T02:58:41.657Z,5.10
2018-12-30T03:01:11.704Z,4.60
2018-12-30T03:03:41.920Z,4.40
2018-12-30T03:06:12.071Z,5.07
2018-12-30T03:08:42.773Z,4.50
2018-12-30T03:11:12.939Z,4.90
2018-12-30T03:13:43.171Z,4.73
2018-12-30T03:16:13.433Z,4.30
2018-12-30T03:18:45.376Z,4.80
2018-12-30T03:21:18.024Z,5.03
2018-12-30T03:23:48.104Z,4.67
2018-12-30T03:26:18.154Z,4.60
2018-12-30T03:28:48.197Z,4.57
2018-12-30T03:31:19.094Z,4.40
2018-12-30T03:33:49.128Z,5.83
2018-12-30T03:36:19.169Z,6.50
2018-12-30T03:38:50.901Z,5.57
2018-12-30T03:41:21.288Z,6.00
2018-12-30T03:43:51.375Z,6.37
2018-12-30T03:46:21.588Z,5.70
2018-12-30T03:48:51.896Z,5.53
2018-12-30T03:51:21.986Z,5.30
2018-12-30T03:53:52.176Z,5.17
2018-12-30T03:56:22.537Z,6.67
2018-12-30T03:58:52.664Z,6.13
2018-12-30T04:01:22.897Z,6.03
2018-12-30T04:03:52.977Z,7.17
2018-12-30T04:06:23.270Z,6.87
2018-12-30T04:08:53.676Z,6.23
2018-12-30T04:11:23.910Z,6.20
2018-12-30T04:13:54.331Z,6.30
2018-12-30T04:16:24.512Z,6.80
2018-12-30T04:18:54.544Z,6.53
2018-12-30T04:21:24.649Z,7.23
2018-12-30T04:23:54.683Z,7.73
2018-12-30T04:26:26.723Z,7.20
2018-12-30T04:28:56.899Z,6.80
2018-12-30T04:31:27.070Z,6.60
2018-12-30T04:33:57.204Z,6.70
2018-12-30T04:36:27.506Z,7.63
2018-12-30T04:38:57.632Z,7.30
2018-12-30T04:41:27.713Z,6.23
2018-12-30T04:43:57.740Z,6.13
2018-12-30T04:46:28.035Z,6.43
2018-12-30T04:48:58.069Z,7.27
2018-12-30T04:51:28.199Z,7.50
2018-12-30T04:53:58.242Z,6.80
2018-12-30T04:56:28.476Z,5.60
2018-12-30T04:58:58.685Z,7.03
2018-12-30T05:01:28.779Z,6.53
2018-12-30T05:03:59.189Z,7.30
2018-12-30T05:06:29.425Z,7.03
2018-12-30T05:08:59.472Z,7.50
2018-12-30T05:11:29.536Z,6.90
2018-12-30T05:13:59.595Z,6.90
2018-12-30T05:16:29.726Z,7.00
2018-12-30T05:18:59.795Z,7.37
2018-12-30T05:21:30.142Z,6.47
2018-12-30T05:24:00.298Z,6.57
2018-12-30T05:26:30.418Z,7.77
2018-12-30T05:29:00.663Z,7.70
2018-12-30T05:31:30.915Z,7.97
2018-12-30T05:34:01.143Z,8.00
2018-12-30T05:36:31.296Z,8.23
2018-12-30T05:39:02.923Z,8.53
2018-12-30T05:41:32.996Z,8.47
2018-12-30T05:44:03.103Z,9.07
2018-12-30T05:46:33.243Z,8.87
2018-12-30T05:49:03.356Z,8.97
2018-12-30T05:51:33.558Z,9.53
2018-12-30T05:54:03.677Z,10.03
2018-12-30T05:56:36.512Z,10.30
2018-12-30T05:59:06.581Z,9.60
2018-12-30T06:01:36.930Z,11.00
2018-12-30T06:04:06.998Z,9.90
2018-12-30T06:06:37.121Z,9.90
2018-12-30T06:09:07.933Z,9.83
2018-12-30T06:11:38.109Z,10.83
2018-12-30T06:14:08.377Z,14.30
2018-12-30T06:16:38.544Z,12.73
2018-12-30T06:19:08.656Z,11.57
2018-12-30T06:21:38.888Z,15.73
2018-12-30T06:24:09.298Z,14.47
2018-12-30T06:26:39.450Z,11.60
2018-12-30T06:29:09.496Z,10.40
2018-12-30T06:31:40.513Z,9.70
2018-12-30T06:34:10.682Z,10.00
2018-12-30T06:36:40.939Z,9.27
2018-12-30T06:39:11.063Z,9.50
2018-12-30T06:41:41.430Z,9.90
2018-12-30T06:44:11.830Z,8.93
2018-12-30T06:46:41.912Z,10.37
2018-12-30T06:49:11.961Z,9.20
2018-12-30T06:51:44.603Z,9.83
2018-12-30T06:54:14.622Z,11.47
2018-12-30T06:56:44.797Z,14.50
2018-12-30T06:59:14.865Z,12.93
2018-12-30T07:01:44.938Z,13.57
2018-12-30T07:04:15.092Z,11.93
2018-12-30T07:06:47.590Z,14.47
2018-12-30T07:09:18.151Z,15.70
2018-12-30T07:11:48.337Z,13.73
2018-12-30T07:14:18.494Z,16.07
2018-12-30T07:16:48.723Z,15.23
2018-12-30T07:19:18.884Z,15.53
2018-12-30T07:21:49.150Z,16.63
2018-12-30T07:24:19.277Z,15.20
2018-12-30T07:26:49.344Z,14.47
2018-12-30T07:29:19.369Z,15.37
2018-12-30T07:31:49.456Z,15.60
2018-12-30T07:34:19.489Z,14.57
2018-12-30T07:36:49.587Z,14.33
2018-12-30T07:39:19.687Z,15.40
2018-12-30T07:41:49.767Z,14.83
2018-12-30T07:44:19.783Z,14.70
2018-12-30T07:46:49.933Z,13.57
2018-12-30T07:49:19.974Z,14.03
2018-12-30T07:51:50.124Z,13.47
2018-12-30T07:54:20.184Z,13.17
2018-12-30T07:56:55.340Z,13.23
2018-12-30T07:59:25.383Z,12.13
2018-12-30T08:01:55.614Z,12.40
2018-12-30T08:04:25.941Z,12.50
2018-12-30T08:06:56.070Z,11.83
2018-12-30T08:09:26.184Z,10.93
2018-12-30T08:11:56.290Z,10.50
2018-12-30T08:14:26.448Z,11.47
2018-12-30T08:16:56.766Z,10.60
2018-12-30T08:19:26.910Z,10.70
2018-12-30T08:21:57.076Z,9.90
2018-12-30T08:24:27.774Z,11.37
2018-12-30T08:26:57.985Z,12.37
2018-12-30T08:29:28.183Z,13.60
2018-12-30T08:31:58.345Z,12.93
2018-12-30T08:34:33.093Z,13.43
2018-12-30T08:37:05.430Z,14.17
2018-12-30T08:39:35.485Z,13.33
2018-12-30T08:42:05.635Z,13.33
2018-12-30T08:44:35.681Z,13.67
2018-12-30T08:47:05.983Z,13.73
2018-12-30T08:49:36.159Z,13.80
2018-12-30T08:52:06.264Z,12.97
2018-12-30T08:54:39.625Z,13.47
2018-12-30T08:57:09.722Z,12.67
2018-12-30T08:59:39.902Z,12.87
2018-12-30T09:02:17.017Z,13.53
2018-12-30T09:04:47.136Z,14.27
2018-12-30T09:07:17.275Z,14.53
2018-12-30T09:09:49.385Z,12.97
2018-12-30T09:12:19.645Z,14.00
2018-12-30T09:14:52.394Z,13.73
2018-12-30T09:17:22.474Z,13.03
2018-12-30T09:19:53.214Z,13.43
2018-12-30T09:22:23.294Z,12.07
2018-12-30T09:24:53.446Z,11.73
2018-12-30T09:27:23.855Z,11.37
2018-12-30T09:29:54.002Z,11.87
2018-12-30T09:32:24.149Z,12.70
2018-12-30T09:34:54.393Z,12.03
2018-12-30T09:37:27.989Z,11.67
2018-12-30T09:39:58.168Z,11.67
2018-12-30T09:42:31.104Z,11.80
2018-12-30T09:45:02.842Z,10.90
2018-12-30T09:47:33.227Z,11.87
2018-12-30T09:50:03.447Z,11.00
2018-12-30T09:52:33.510Z,11.20
2018-12-30T09:55:03.702Z,12.80
2018-12-30T09:57:33.925Z,11.43
2018-12-30T10:00:05.179Z,11.70
2018-12-30T10:02:35.264Z,11.10
2018-12-30T10:05:05.553Z,11.20
2018-12-30T10:07:39.189Z,11.77
2018-12-30T10:10:09.331Z,10.47
2018-12-30T10:12:39.656Z,11.30
2018-12-30T10:15:10.477Z,11.13
2018-12-30T10:17:53.088Z,9.73
2018-12-30T10:20:23.239Z,9.97
2018-12-30T10:22:58.768Z,10.40
2018-12-30T10:25:25.609Z,10.53
2018-12-30T10:27:55.936Z,10.57
2018-12-30T10:30:26.721Z,10.07
2018-12-30T10:32:57.304Z,10.00
2018-12-30T10:35:27.413Z,10.20
2018-12-30T10:37:59.796Z,10.67
2018-12-30T10:40:29.819Z,9.67
2018-12-30T10:42:59.908Z,10.23
2018-12-30T10:45:31.749Z,9.50
2018-12-30T10:48:01.942Z,9.57
2018-12-30T10:50:32.299Z,9.70
2018-12-30T10:53:02.470Z,10.03
2018-12-30T10:55:32.522Z,10.60
2018-12-30T10:58:06.374Z,10.23
2018-12-30T11:00:36.461Z,9.93
2018-12-30T11:03:08.045Z,9.93
2018-12-30T11:05:38.603Z,10.03
2018-12-30T11:08:09.508Z,10.10
2018-12-30T11:10:39.672Z,10.43
2018-12-30T11:13:10.265Z,10.30
2018-12-30T11:15:52.102Z,10.00
2018-12-30T11:18:34.007Z,9.30
2018-12-30T11:21:05.058Z,9.80
2018-12-30T11:23:38.759Z,10.03
2018-12-30T11:26:08.814Z,10.47
2018-12-30T11:28:38.897Z,10.77
2018-12-30T11:31:09.028Z,10.50
2018-12-30T11:33:40.601Z,11.10
2018-12-30T11:36:10.661Z,10.40
2018-12-30T11:38:40.806Z,12.17
2018-12-30T11:41:10.883Z,11.30
2018-12-30T11:43:41.068Z,11.47
2018-12-30T11:46:11.141Z,12.67
2018-12-30T11:48:41.368Z,13.00
2018-12-30T11:51:11.588Z,13.33
2018-12-30T11:53:41.933Z,13.53
2018-12-30T11:56:11.994Z,14.27
2018-12-30T11:58:42.091Z,14.53
2018-12-30T12:01:12.229Z,15.17
2018-12-30T12:03:42.669Z,15.03
2018-12-30T12:06:12.758Z,15.50
2018-12-30T12:08:42.853Z,15.80
2018-12-30T12:11:12.955Z,14.93
2018-12-30T12:13:43.272Z,16.27
2018-12-30T12:16:15.423Z,15.00
2018-12-30T12:18:45.627Z,15.40
2018-12-30T12:21:16.022Z,14.67
2018-12-30T12:23:46.192Z,15.77
2018-12-30T12:26:16.223Z,15.60
2018-12-30T12:28:46.273Z,14.90
2018-12-30T12:31:16.552Z,15.00
2018-12-30T12:33:46.690Z,16.13
2018-12-30T12:36:16.985Z,16.40
2018-12-30T12:38:47.147Z,15.80
2018-12-30T12:41:17.359Z,16.77
2018-12-30T12:43:47.752Z,15.50
2018-12-30T12:46:17.796Z,14.70
2018-12-30T12:48:51.117Z,15.33
2018-12-30T12:51:27.890Z,14.93
2018-12-30T12:53:58.190Z,15.03
2018-12-30T12:56:30.109Z,14.33
2018-12-30T12:59:00.649Z,15.40
2018-12-30T13:01:30.869Z,18.80
2018-12-30T13:04:02.471Z,19.77
2018-12-30T13:06:32.727Z,22.93
2018-12-30T13:09:04.089Z,17.13
2018-12-30T13:11:34.567Z,14.83
2018-12-30T13:14:04.966Z,15.03
2018-12-30T13:16:35.223Z,16.30
2018-12-30T13:19:05.713Z,17.20
2018-12-30T13:21:36.268Z,16.10
2018-12-30T13:24:06.644Z,16.00
2018-12-30T13:26:37.267Z,16.40
2018-12-30T13:29:07.788Z,17.23
2018-12-30T13:31:37.866Z,18.23
2018-12-30T13:34:11.419Z,18.07
2018-12-30T13:36:41.524Z,18.20
2018-12-30T13:39:12.008Z,18.97
2018-12-30T13:41:42.150Z,19.87
2018-12-30T13:44:12.329Z,19.80
2018-12-30T13:46:42.509Z,22.40
2018-12-30T13:49:12.722Z,22.20
2018-12-30T13:51:42.966Z,24.03
2018-12-30T13:54:13.049Z,24.23
2018-12-30T13:56:43.158Z,25.17
2018-12-30T13:59:13.255Z,24.57
2018-12-30T14:01:44.204Z,24.13
2018-12-30T14:04:14.310Z,25.10
2018-12-30T14:06:45.707Z,25.43
2018-12-30T14:09:15.882Z,28.23
2018-12-30T14:11:46.289Z,26.77
2018-12-30T14:14:16.687Z,25.60
2018-12-30T14:16:47.088Z,27.77
2018-12-30T14:19:17.500Z,28.07
2018-12-30T14:21:47.752Z,28.40
2018-12-30T14:24:17.990Z,29.03
2018-12-30T14:26:48.072Z,29.50
2018-12-30T14:29:18.697Z,27.67
2018-12-30T14:31:49.211Z,30.10
2018-12-30T14:34:19.432Z,29.33
2018-12-30T14:36:49.605Z,29.93
2018-12-30T14:39:20.090Z,29.40
2018-12-30T14:41:50.296Z,31.17
2018-12-30T14:44:20.544Z,29.40
2018-12-30T14:46:55.009Z,31.73
2018-12-30T14:49:25.118Z,29.57
2018-12-30T14:51:55.837Z,30.70
2018-12-30T14:54:31.916Z,33.10
2018-12-30T14:57:05.169Z,31.30
2018-12-30T14:59:35.953Z,31.57
2018-12-30T15:02:06.112Z,31.23
2018-12-30T15:04:36.226Z,31.80
2018-12-30T15:07:06.448Z,30.97
2018-12-30T15:09:36.651Z,30.50
2018-12-30T15:12:06.798Z,29.43
2018-12-30T15:14:36.863Z,30.17
2018-12-30T15:17:07.216Z,30.47
2018-12-30T15:19:37.357Z,29.87
2018-12-30T15:22:07.557Z,29.60
2018-12-30T15:24:37.678Z,29.00
2018-12-30T15:27:07.837Z,29.50
2018-12-30T15:29:37.973Z,29.00
2018-12-30T15:32:08.272Z,29.17
2018-12-30T15:34:38.561Z,30.43
2018-12-30T15:37:10.428Z,27.83
2018-12-30T15:39:40.590Z,28.10
2018-12-30T15:42:10.618Z,27.13
2018-12-30T15:44:40.885Z,28.43
2018-12-30T15:47:11.005Z,28.80
2018-12-30T15:49:41.326Z,28.27
2018-12-30T15:52:11.525Z,28.87
2018-12-30T15:54:41.693Z,27.87
2018-12-30T15:57:11.748Z,27.23
2018-12-30T15:59:42.083Z,30.47
2018-12-30T16:02:12.201Z,27.83
2018-12-30T16:04:42.320Z,29.30
2018-12-30T16:07:12.489Z,30.03
2018-12-30T16:09:42.882Z,30.93
2018-12-30T16:12:13.079Z,30.33
2018-12-30T16:14:43.217Z,30.67
2018-12-30T16:17:13.430Z,31.77
2018-12-30T16:19:43.623Z,31.20
2018-12-30T16:22:13.934Z,33.17
2018-12-30T16:24:44.028Z,31.47
2018-12-30T16:27:14.140Z,34.03
2018-12-30T16:29:44.283Z,35.33
2018-12-30T16:32:14.603Z,35.10
2018-12-30T16:34:44.755Z,36.50
2018-12-30T16:37:14.921Z,35.90
2018-12-30T16:39:45.241Z,36.57
2018-12-30T16:42:15.394Z,38.07
2018-12-30T16:44:45.605Z,38.83
2018-12-30T16:47:15.820Z,39.47
2018-12-30T16:49:46.118Z,38.20
2018-12-30T16:52:16.255Z,41.03
2018-12-30T16:54:46.428Z,40.87
2018-12-30T16:57:16.566Z,41.73
2018-12-30T16:59:48.138Z,46.07
2018-12-30T17:02:18.286Z,46.37
2018-12-30T17:04:48.339Z,41.83
2018-12-30T17:07:21.959Z,46.97
2018-12-30T17:09:53.833Z,46.73
2018-12-30T17:12:23.877Z,47.00
2018-12-30T17:14:54.261Z,46.97
2018-12-30T17:17:24.383Z,46.60
2018-12-30T17:19:54.539Z,46.20
2018-12-30T17:22:24.661Z,45.00
2018-12-30T17:24:54.845Z,46.03
2018-12-30T17:27:27.890Z,44.70
2018-12-30T17:29:58.065Z,44.70
2018-12-30T17:32:28.273Z,45.03
2018-12-30T17:34:58.514Z,43.70
2018-12-30T17:37:28.678Z,43.17
2018-12-30T17:39:58.970Z,43.23
2018-12-30T17:42:29.116Z,43.40
2018-12-30T17:44:59.212Z,43.10
2018-12-30T17:47:29.394Z,43.67
2018-12-30T17:49:59.507Z,41.67
2018-12-30T17:52:31.293Z,40.93
2018-12-30T17:55:01.458Z,42.13
2018-12-30T17:57:31.547Z,47.60
2018-12-30T18:00:01.854Z,49.90
2018-12-30T18:02:31.982Z,46.87
2018-12-30T18:05:03.973Z,43.37
2018-12-30T18:07:34.139Z,42.57
2018-12-30T18:10:04.487Z,41.53
2018-12-30T18:12:34.870Z,43.20
2018-12-30T18:15:05.830Z,42.80
2018-12-30T18:17:41.497Z,43.30
2018-12-30T18:20:26.069Z,43.40
2018-12-30T18:23:14.201Z,45.13
2018-12-30T18:25:44.541Z,45.93
2018-12-30T18:28:32.593Z,43.83
2018-12-30T18:31:02.732Z,42.07
2018-12-30T18:33:32.979Z,42.43
2018-12-30T18:36:07.391Z,41.00
2018-12-30T18:38:37.646Z,42.20
2018-12-30T18:41:09.511Z,42.20
2018-12-30T18:43:39.682Z,42.83
2018-12-30T18:46:09.894Z,42.50
2018-12-30T18:48:40.034Z,43.30
2018-12-30T18:51:10.144Z,45.77
2018-12-30T18:53:40.343Z,45.13
2018-12-30T18:56:10.458Z,45.73
2018-12-30T18:58:40.705Z,46.07
2018-12-30T19:01:10.890Z,47.57
2018-12-30T19:03:41.026Z,47.33
2018-12-30T19:06:11.235Z,45.73
2018-12-30T19:08:41.470Z,48.20
2018-12-30T19:11:13.467Z,49.27
2018-12-30T19:13:43.605Z,48.63
2018-12-30T19:16:13.722Z,52.67
2018-12-30T19:19:01.874Z,51.73
2018-12-30T19:21:32.068Z,51.70
2018-12-30T19:24:04.092Z,52.60
2018-12-30T19:26:35.980Z,53.47
2018-12-30T19:29:06.276Z,53.80
2018-12-30T19:31:36.393Z,52.90
2018-12-30T19:34:06.539Z,52.10
2018-12-30T19:36:54.592Z,52.10
2018-12-30T19:39:24.737Z,54.23
2018-12-30T19:41:55.076Z,52.67
2018-12-30T19:44:25.327Z,53.77
2018-12-30T19:46:55.608Z,54.43
2018-12-30T19:49:25.838Z,54.20
2018-12-30T19:51:56.793Z,61.20
2018-12-30T19:54:27.687Z,57.67
2018-12-30T19:56:58.630Z,55.60
2018-12-30T19:59:29.629Z,52.50
2018-12-30T20:02:00.367Z,51.97
2018-12-30T20:04:31.083Z,51.23
2018-12-30T20:07:02.074Z,48.83
2018-12-30T20:09:33.195Z,47.33
2018-12-30T20:12:04.193Z,46.93
2018-12-30T20:14:35.226Z,53.90
2018-12-30T20:17:06.414Z,51.17
2018-12-30T20:19:37.519Z,48.23
2018-12-30T20:22:08.789Z,48.80
2018-12-30T20:24:40.023Z,50.27
2018-12-30T20:27:11.200Z,47.93
2018-12-30T20:29:42.658Z,44.73
2018-12-30T20:32:13.910Z,45.87
2018-12-30T20:34:45.310Z,42.30
2018-12-30T20:37:16.243Z,43.73
2018-12-30T20:39:47.377Z,44.57
2018-12-30T20:42:18.494Z,41.20
2018-12-30T20:44:49.519Z,43.57
2018-12-30T20:47:20.524Z,41.57
2018-12-30T20:49:53.119Z,40.40
2018-12-30T20:52:23.604Z,42.23
2018-12-30T20:54:55.920Z,40.77
2018-12-30T20:57:26.325Z,39.27
2018-12-30T20:59:56.530Z,41.03
2018-12-30T21:02:27.078Z,42.00
2018-12-30T21:04:57.618Z,41.37
2018-12-30T21:07:27.840Z,41.17
2018-12-30T21:09:57.909Z,39.67
2018-12-30T21:12:28.220Z,39.93
2018-12-30T21:14:58.377Z,37.17
2018-12-30T21:17:28.494Z,39.03
2018-12-30T21:19:58.742Z,37.83
2018-12-30T21:22:29.093Z,34.93
2018-12-30T21:24:59.381Z,34.60
2018-12-30T21:27:29.910Z,36.80
2018-12-30T21:30:00.258Z,34.97
2018-12-30T21:32:30.728Z,34.97
2018-12-30T21:35:00.957Z,39.33
2018-12-30T21:37:31.300Z,41.90
2018-12-30T21:40:01.409Z,38.97
2018-12-30T21:42:31.789Z,37.07
2018-12-30T21:45:01.879Z,36.00
2018-12-30T21:47:32.143Z,33.73
2018-12-30T21:50:02.444Z,35.90
2018-12-30T21:52:32.568Z,36.30
2018-12-30T21:55:02.731Z,36.57
2018-12-30T21:57:32.894Z,35.07
2018-12-30T22:00:03.265Z,35.53
2018-12-30T22:02:33.457Z,37.00
2018-12-30T22:05:03.831Z,38.03
2018-12-30T22:07:35.027Z,35.87
2018-12-30T22:10:06.244Z,36.43
2018-12-30T22:12:36.481Z,35.63
2018-12-30T22:15:08.013Z,35.97
2018-12-30T22:17:38.260Z,37.90
2018-12-30T22:20:08.350Z,33.63
2018-12-30T22:22:38.602Z,37.37
2018-12-30T22:25:08.701Z,37.87
2018-12-30T22:27:38.815Z,36.03
2018-12-30T22:30:09.197Z,38.77
2018-12-30T22:32:39.293Z,40.57
2018-12-30T22:35:09.642Z,40.73
2018-12-30T22:37:39.806Z,40.77
2018-12-30T22:40:09.928Z,40.37
2018-12-30T22:42:40.220Z,38.43
2018-12-30T22:45:10.280Z,40.87
2018-12-30T22:47:40.617Z,40.17
2018-12-30T22:50:10.751Z,41.53
2018-12-30T22:52:41.049Z,41.63
2018-12-30T22:55:11.099Z,43.90
2018-12-30T22:57:41.343Z,42.30
2018-12-30T23:00:22.329Z,43.57
2018-12-30T23:02:52.478Z,44.93
2018-12-30T23:05:23.023Z,45.60
2018-12-30T23:07:53.131Z,44.87
2018-12-30T23:10:23.165Z,41.50
2018-12-30T23:12:53.323Z,40.70
2018-12-30T23:15:23.464Z,45.13
2018-12-30T23:17:53.667Z,43.13
2018-12-30T23:20:23.733Z,41.03
2018-12-30T23:22:53.977Z,41.63
2018-12-30T23:25:24.178Z,45.03
2018-12-30T23:27:54.537Z,44.63
2018-12-30T23:30:24.663Z,44.70
2018-12-30T23:32:54.866Z,44.87
2018-12-30T23:35:24.956Z,45.77
2018-12-30T23:37:55.074Z,43.10
2018-12-30T23:40:25.115Z,43.13
2018-12-30T23:42:57.805Z,44.57
2018-12-30T23:45:27.876Z,46.30
2018-12-30T23:47:58.018Z,43.70
2018-12-30T23:50:28.125Z,46.13
2018-12-30T23:52:58.384Z,47.30
2018-12-30T23:55:28.937Z,41.73
2018-12-30T23:58:10.804Z,47.63
